createdAt,value
2017-04-20T00:00:56.168Z,0
2017-04-20T00:01:56.777Z,0
2017-04-20T00:02:57.381Z,0
2017-04-20T00:03:57.994Z,0
2017-04-20T00:04:58.591Z,0
2017-04-20T00:05:59.238Z,0
2017-04-20T00:06:59.826Z,0
2017-04-20T00:08:00.425Z,0
2017-04-20T00:09:01.037Z,0
2017-04-20T00:10:01.618Z,0
2017-04-20T00:11:02.208Z,0
2017-04-20T00:12:02.811Z,0
2017-04-20T00:13:03.412Z,0
2017-04-20T00:14:04.015Z,0
2017-04-20T00:15:04.660Z,0
2017-04-20T00:16:05.260Z,0
2017-04-20T00:17:05.854Z,0
2017-04-20T00:18:06.458Z,0
2017-04-20T00:19:07.064Z,0
2017-04-20T00:20:07.705Z,0
2017-04-20T00:21:08.307Z,0
2017-04-20T00:22:08.909Z,0
2017-04-20T00:23:09.513Z,0
2017-04-20T00:24:10.122Z,0
2017-04-20T00:25:10.777Z,0
2017-04-20T00:26:11.368Z,0
2017-04-20T00:27:11.958Z,0
2017-04-20T00:28:12.559Z,0
2017-04-20T00:29:13.175Z,0
2017-04-20T00:30:13.807Z,0
2017-04-20T00:31:14.410Z,0
2017-04-20T00:32:15.008Z,0
2017-04-20T00:33:15.611Z,0
2017-04-20T00:34:16.206Z,0
2017-04-20T00:35:16.853Z,0
2017-04-20T00:36:17.451Z,0
2017-04-20T00:37:18.041Z,0
2017-04-20T00:38:18.625Z,0
2017-04-20T00:39:19.231Z,0
2017-04-20T00:40:19.872Z,0
2017-04-20T00:41:20.463Z,0
2017-04-20T00:42:21.055Z,0
2017-04-20T00:43:21.642Z,0
2017-04-20T00:44:22.246Z,0
2017-04-20T00:45:22.889Z,0
2017-04-20T00:46:23.478Z,0
2017-04-20T00:47:24.077Z,0
2017-04-20T00:48:24.681Z,0
2017-04-20T00:49:25.280Z,0
2017-04-20T00:50:25.924Z,0
2017-04-20T00:51:26.527Z,0
2017-04-20T00:52:27.132Z,0
2017-04-20T00:53:27.725Z,0
2017-04-20T00:54:28.327Z,0
2017-04-20T00:55:28.925Z,0
2017-04-20T00:56:29.518Z,0
2017-04-20T00:57:30.125Z,0
2017-04-20T00:58:30.727Z,0
2017-04-20T00:59:31.329Z,0
2017-04-20T01:00:31.927Z,0
2017-04-20T01:01:32.529Z,0
2017-04-20T01:02:33.119Z,0
2017-04-20T01:03:33.723Z,0
2017-04-20T01:04:34.319Z,0
2017-04-20T01:05:34.971Z,0
2017-04-20T01:06:35.560Z,0
2017-04-20T01:07:36.155Z,0
2017-04-20T01:08:36.756Z,0
2017-04-20T01:09:37.349Z,0
2017-04-20T01:10:37.996Z,0
2017-04-20T01:11:38.588Z,0
2017-04-20T01:12:39.176Z,0
2017-04-20T01:13:39.767Z,0
2017-04-20T01:14:40.360Z,0
2017-04-20T01:15:40.965Z,0
2017-04-20T01:16:41.557Z,0
2017-04-20T01:17:42.144Z,0
2017-04-20T01:18:42.734Z,0
2017-04-20T01:19:43.332Z,0
2017-04-20T01:20:43.974Z,0
2017-04-20T01:21:44.565Z,0
2017-04-20T01:22:45.169Z,0
2017-04-20T01:23:45.764Z,0
2017-04-20T01:24:46.363Z,0
2017-04-20T01:25:47.006Z,0
2017-04-20T01:26:47.604Z,0
2017-04-20T01:27:48.193Z,0
2017-04-20T01:28:48.795Z,0
2017-04-20T01:29:49.406Z,0
2017-04-20T01:30:50.055Z,0
2017-04-20T01:31:50.653Z,0
2017-04-20T01:32:51.248Z,0
2017-04-20T01:33:51.851Z,0
2017-04-20T01:34:52.443Z,0
2017-04-20T01:35:53.096Z,0
2017-04-20T01:36:53.699Z,0
2017-04-20T01:37:54.300Z,0
2017-04-20T01:38:54.898Z,0
2017-04-20T01:39:55.503Z,0
2017-04-20T01:40:56.093Z,0
2017-04-20T01:41:56.704Z,0
2017-04-20T01:42:57.303Z,0
2017-04-20T01:43:57.894Z,0
2017-04-20T01:44:58.482Z,0
2017-04-20T01:45:59.085Z,0
2017-04-20T01:46:59.691Z,0
2017-04-20T01:48:00.296Z,0
2017-04-20T01:49:00.884Z,0
2017-04-20T01:50:01.475Z,0
2017-04-20T01:51:02.080Z,0
2017-04-20T01:52:02.682Z,0
2017-04-20T01:53:03.280Z,0
2017-04-20T01:54:03.870Z,0
2017-04-20T01:55:04.471Z,0
2017-04-20T01:56:05.066Z,0
2017-04-20T01:57:05.655Z,0
2017-04-20T01:58:06.256Z,0
2017-04-20T01:59:06.857Z,0
2017-04-20T02:00:07.442Z,0
2017-04-20T02:01:08.038Z,0
2017-04-20T02:02:08.638Z,0
2017-04-20T02:03:09.230Z,0
2017-04-20T02:04:09.824Z,0
2017-04-20T02:05:10.406Z,0
2017-04-20T02:06:11.047Z,0
2017-04-20T02:07:11.636Z,0
2017-04-20T02:08:12.242Z,0
2017-04-20T02:09:12.829Z,0
2017-04-20T02:10:13.417Z,0
2017-04-20T02:11:14.066Z,0
2017-04-20T02:12:14.662Z,0
2017-04-20T02:13:15.259Z,0
2017-04-20T02:14:15.858Z,0
2017-04-20T02:15:16.452Z,0
2017-04-20T02:16:17.053Z,0
2017-04-20T02:17:17.641Z,0
2017-04-20T02:18:18.248Z,0
2017-04-20T02:19:18.847Z,0
2017-04-20T02:20:19.448Z,0
2017-04-20T02:21:20.044Z,0
2017-04-20T02:22:20.651Z,0
2017-04-20T02:23:21.250Z,0
2017-04-20T02:24:21.850Z,0
2017-04-20T02:25:22.442Z,0
2017-04-20T02:26:23.044Z,0
2017-04-20T02:27:23.633Z,0
2017-04-20T02:28:24.220Z,0
2017-04-20T02:29:24.821Z,0
2017-04-20T02:30:25.414Z,0
2017-04-20T02:31:26.056Z,0
2017-04-20T02:32:26.658Z,0
2017-04-20T02:33:27.260Z,0
2017-04-20T02:34:27.858Z,0
2017-04-20T02:35:28.447Z,0
2017-04-20T02:36:29.095Z,0
2017-04-20T02:37:29.684Z,0
2017-04-20T02:38:30.288Z,0
2017-04-20T02:39:30.892Z,0
2017-04-20T02:40:31.496Z,0
2017-04-20T02:41:32.150Z,0
2017-04-20T02:42:32.748Z,0
2017-04-20T02:43:33.347Z,0
2017-04-20T02:44:33.942Z,0
2017-04-20T02:45:34.530Z,0
2017-04-20T02:46:35.183Z,0
2017-04-20T02:47:35.819Z,0
2017-04-20T02:48:36.442Z,0
2017-04-20T02:49:37.046Z,0
2017-04-20T02:50:37.684Z,0
2017-04-20T02:51:38.250Z,0
2017-04-20T02:52:38.833Z,0
2017-04-20T02:53:39.432Z,0
2017-04-20T02:54:40.023Z,0
2017-04-20T02:55:40.628Z,0
2017-04-20T02:56:41.290Z,0
2017-04-20T02:57:41.884Z,0
2017-04-20T02:58:42.483Z,0
2017-04-20T02:59:43.126Z,0
2017-04-20T03:00:43.724Z,0
2017-04-20T03:01:44.329Z,0
2017-04-20T03:02:44.926Z,0
2017-04-20T03:03:45.516Z,0
2017-04-20T03:04:46.117Z,0
2017-04-20T03:05:46.769Z,0
2017-04-20T03:06:47.362Z,0
2017-04-20T03:07:47.968Z,0
2017-04-20T03:08:48.556Z,0
2017-04-20T03:09:49.162Z,0
2017-04-20T03:10:49.751Z,0
2017-04-20T03:11:50.341Z,0
2017-04-20T03:12:50.948Z,0
2017-04-20T03:13:51.539Z,0
2017-04-20T03:14:52.140Z,0
2017-04-20T03:15:52.730Z,0
2017-04-20T03:16:53.319Z,0
2017-04-20T03:17:53.907Z,0
2017-04-20T03:18:54.503Z,0
2017-04-20T03:19:55.099Z,0
2017-04-20T03:20:55.752Z,0
2017-04-20T03:21:56.357Z,0
2017-04-20T03:22:56.962Z,0
2017-04-20T03:23:57.566Z,0
2017-04-20T03:24:58.168Z,0
2017-04-20T03:25:58.909Z,0
2017-04-20T03:26:59.502Z,0
2017-04-20T03:28:00.106Z,0
2017-04-20T03:29:00.709Z,0
2017-04-20T03:30:01.308Z,0
2017-04-20T03:31:01.905Z,0
2017-04-20T03:32:02.498Z,0
2017-04-20T03:33:03.103Z,0
2017-04-20T03:34:03.691Z,0
2017-04-20T03:35:04.278Z,0
2017-04-20T03:36:04.977Z,0
2017-04-20T03:37:05.568Z,0
2017-04-20T03:38:06.179Z,0
2017-04-20T03:39:06.768Z,0
2017-04-20T03:40:07.372Z,0
2017-04-20T03:41:08.027Z,0
2017-04-20T03:42:08.628Z,0
2017-04-20T03:43:09.221Z,0
2017-04-20T03:44:09.811Z,0
2017-04-20T03:45:10.401Z,0
2017-04-20T03:46:10.993Z,0
2017-04-20T03:47:11.594Z,0
2017-04-20T03:48:12.196Z,0
2017-04-20T03:49:12.798Z,0
2017-04-20T03:50:13.396Z,0
2017-04-20T03:51:14.037Z,0
2017-04-20T03:52:14.632Z,0
2017-04-20T03:53:15.235Z,4
2017-04-20T03:54:15.825Z,4
2017-04-20T03:55:16.434Z,4
2017-04-20T03:56:17.020Z,0
2017-04-20T03:57:17.612Z,4
2017-04-20T03:58:18.215Z,4
2017-04-20T03:59:18.809Z,8
2017-04-20T04:00:19.408Z,4
2017-04-20T04:01:20.067Z,8
2017-04-20T04:02:20.666Z,8
2017-04-20T04:03:21.258Z,8
2017-04-20T04:04:21.862Z,12
2017-04-20T04:05:22.454Z,16
2017-04-20T04:06:23.055Z,20
2017-04-20T04:07:23.642Z,20
2017-04-20T04:08:24.245Z,24
2017-04-20T04:09:24.833Z,28
2017-04-20T04:10:25.430Z,36
2017-04-20T04:11:26.071Z,44
2017-04-20T04:12:26.661Z,48
2017-04-20T04:13:27.268Z,56
2017-04-20T04:14:27.855Z,68
2017-04-20T04:15:28.447Z,76
2017-04-20T04:16:29.095Z,88
2017-04-20T04:17:29.703Z,100
2017-04-20T04:18:30.302Z,112
2017-04-20T04:19:30.896Z,132
2017-04-20T04:20:31.486Z,148
2017-04-20T04:21:32.089Z,164
2017-04-20T04:22:32.693Z,188
2017-04-20T04:23:33.287Z,212
2017-04-20T04:24:33.878Z,236
2017-04-20T04:25:34.467Z,268
2017-04-20T04:26:35.070Z,300
2017-04-20T04:27:35.678Z,336
2017-04-20T04:28:36.285Z,368
2017-04-20T04:29:36.884Z,408
2017-04-20T04:30:37.475Z,452
2017-04-20T04:31:38.127Z,496
2017-04-20T04:32:38.730Z,540
2017-04-20T04:33:39.338Z,592
2017-04-20T04:34:39.930Z,648
2017-04-20T04:35:40.530Z,708
2017-04-20T04:36:41.130Z,772
2017-04-20T04:37:41.721Z,832
2017-04-20T04:38:42.327Z,904
2017-04-20T04:39:42.935Z,976
2017-04-20T04:40:43.524Z,1052
2017-04-20T04:41:44.167Z,1136
2017-04-20T04:42:44.765Z,1224
2017-04-20T04:43:45.367Z,1308
2017-04-20T04:44:45.972Z,1396
2017-04-20T04:45:46.564Z,1484
2017-04-20T04:46:47.157Z,1576
2017-04-20T04:47:47.763Z,1664
2017-04-20T04:48:48.370Z,1756
2017-04-20T04:49:48.972Z,1848
2017-04-20T04:50:49.564Z,1948
2017-04-20T04:51:50.210Z,2040
2017-04-20T04:52:50.804Z,2140
2017-04-20T04:53:51.401Z,2244
2017-04-20T04:54:51.992Z,2356
2017-04-20T04:55:52.595Z,2476
2017-04-20T04:56:53.186Z,2600
2017-04-20T04:57:53.784Z,2720
2017-04-20T04:58:54.395Z,2840
2017-04-20T04:59:55.002Z,2976
2017-04-20T05:00:55.595Z,3108
2017-04-20T05:01:56.204Z,3212
2017-04-20T05:02:56.811Z,3368
2017-04-20T05:03:57.429Z,3448
2017-04-20T05:04:58.028Z,3508
2017-04-20T05:05:58.622Z,3680
2017-04-20T05:06:59.282Z,3652
2017-04-20T05:07:59.887Z,3576
2017-04-20T05:09:00.497Z,3536
2017-04-20T05:10:01.090Z,3600
2017-04-20T05:11:01.695Z,3712
2017-04-20T05:12:02.290Z,4044
2017-04-20T05:13:02.899Z,4472
2017-04-20T05:14:03.503Z,4876
2017-04-20T05:15:04.103Z,5120
2017-04-20T05:16:04.712Z,5336
2017-04-20T05:17:05.324Z,5472
2017-04-20T05:18:05.933Z,5772
2017-04-20T05:19:06.540Z,6064
2017-04-20T05:20:07.139Z,6192
2017-04-20T05:21:07.746Z,6300
2017-04-20T05:22:08.352Z,6356
2017-04-20T05:23:08.961Z,6524
2017-04-20T05:24:09.574Z,6604
2017-04-20T05:25:10.191Z,6552
2017-04-20T05:26:10.805Z,6288
2017-04-20T05:27:11.401Z,6308
2017-04-20T05:28:12.015Z,6516
2017-04-20T05:29:12.622Z,6548
2017-04-20T05:30:13.233Z,6712
2017-04-20T05:31:13.852Z,6744
2017-04-20T05:32:14.461Z,6720
2017-04-20T05:33:15.064Z,6872
2017-04-20T05:34:15.678Z,7520
2017-04-20T05:35:16.288Z,8396
2017-04-20T05:36:17.043Z,8568
2017-04-20T05:37:17.641Z,8088
2017-04-20T05:38:18.254Z,7828
2017-04-20T05:39:18.856Z,8320
2017-04-20T05:40:19.456Z,8376
2017-04-20T05:41:20.117Z,7964
2017-04-20T05:42:20.730Z,8192
2017-04-20T05:43:21.340Z,8608
2017-04-20T05:44:21.946Z,8416
2017-04-20T05:45:22.662Z,8476
2017-04-20T05:46:23.326Z,9400
2017-04-20T05:47:23.942Z,10264
2017-04-20T05:48:24.563Z,10728
2017-04-20T05:49:25.178Z,11228
2017-04-20T05:50:25.779Z,11220
2017-04-20T05:51:26.381Z,9996
2017-04-20T05:52:26.994Z,9052
2017-04-20T05:53:27.601Z,10320
2017-04-20T05:54:28.215Z,12424
2017-04-20T05:55:28.821Z,13724
2017-04-20T05:56:29.481Z,13948
2017-04-20T05:57:30.083Z,13588
2017-04-20T05:58:30.695Z,14000
2017-04-20T05:59:31.306Z,15116
2017-04-20T06:00:31.919Z,16448
2017-04-20T06:01:32.581Z,16668
2017-04-20T06:02:33.197Z,13964
2017-04-20T06:03:33.813Z,10952
2017-04-20T06:04:34.433Z,11988
2017-04-20T06:05:35.053Z,14696
2017-04-20T06:06:35.729Z,17300
2017-04-20T06:07:36.334Z,18976
2017-04-20T06:08:36.947Z,19296
2017-04-20T06:09:37.560Z,19168
2017-04-20T06:10:38.179Z,16980
2017-04-20T06:11:38.786Z,17984
2017-04-20T06:12:39.407Z,18912
2017-04-20T06:13:40.026Z,18912
2017-04-20T06:14:40.640Z,19328
2017-04-20T06:15:41.258Z,20256
2017-04-20T06:16:41.867Z,20960
2017-04-20T06:17:42.472Z,20480
2017-04-20T06:18:43.090Z,19936
2017-04-20T06:19:43.716Z,20672
2017-04-20T06:20:44.338Z,23936
2017-04-20T06:21:44.950Z,25472
2017-04-20T06:22:45.572Z,26048
2017-04-20T06:23:46.225Z,25408
2017-04-20T06:24:46.829Z,24544
2017-04-20T06:25:47.491Z,24896
2017-04-20T06:26:48.099Z,25056
2017-04-20T06:27:48.719Z,25440
2017-04-20T06:28:49.345Z,24640
2017-04-20T06:29:49.968Z,24800
2017-04-20T06:30:50.586Z,25696
2017-04-20T06:31:51.206Z,25888
2017-04-20T06:32:51.826Z,26720
2017-04-20T06:33:52.446Z,27488
2017-04-20T06:34:53.122Z,28544
2017-04-20T06:35:53.733Z,29056
2017-04-20T06:36:54.351Z,29280
2017-04-20T06:37:54.969Z,28224
2017-04-20T06:38:55.595Z,27232
2017-04-20T06:39:56.221Z,28160
2017-04-20T06:40:56.850Z,29472
2017-04-20T06:41:57.475Z,29984
2017-04-20T06:42:58.084Z,28512
2017-04-20T06:43:58.707Z,27680
2017-04-20T06:44:59.385Z,27200
2017-04-20T06:45:59.995Z,28928
2017-04-20T06:47:00.619Z,30816
2017-04-20T06:48:01.229Z,31904
2017-04-20T06:49:01.842Z,29408
2017-04-20T06:50:02.467Z,28320
2017-04-20T06:51:03.079Z,30816
2017-04-20T06:52:03.703Z,31712
2017-04-20T06:53:04.319Z,34464
2017-04-20T06:54:04.947Z,35264
2017-04-20T06:55:05.574Z,30848
2017-04-20T06:56:06.197Z,34624
2017-04-20T06:57:06.821Z,34816
2017-04-20T06:58:07.436Z,31808
2017-04-20T06:59:08.063Z,34560
2017-04-20T07:00:08.687Z,33856
2017-04-20T07:01:09.320Z,37344
2017-04-20T07:02:09.936Z,37216
2017-04-20T07:03:10.554Z,37088
2017-04-20T07:04:11.178Z,37504
2017-04-20T07:05:11.853Z,37728
2017-04-20T07:06:12.462Z,38688
2017-04-20T07:07:13.089Z,39072
2017-04-20T07:08:13.706Z,40096
2017-04-20T07:09:14.333Z,40480
2017-04-20T07:10:14.962Z,39936
2017-04-20T07:11:15.582Z,39232
2017-04-20T07:12:16.207Z,39264
2017-04-20T07:13:16.830Z,39392
2017-04-20T07:14:17.454Z,40352
2017-04-20T07:15:18.080Z,41728
2017-04-20T07:16:18.710Z,43616
2017-04-20T07:17:19.345Z,43360
2017-04-20T07:18:19.972Z,45280
2017-04-20T07:19:20.600Z,46016
2017-04-20T07:20:21.221Z,44160
2017-04-20T07:21:21.840Z,42720
2017-04-20T07:22:22.469Z,42912
2017-04-20T07:23:23.087Z,42848
2017-04-20T07:24:23.709Z,44640
2017-04-20T07:25:24.327Z,42464
2017-04-20T07:26:24.954Z,39584
2017-04-20T07:27:25.572Z,36352
2017-04-20T07:28:26.193Z,37568
2017-04-20T07:29:26.813Z,37248
2017-04-20T07:30:27.489Z,40128
2017-04-20T07:31:28.112Z,38720
2017-04-20T07:32:28.731Z,44128
2017-04-20T07:33:29.358Z,43776
2017-04-20T07:34:29.985Z,41792
2017-04-20T07:35:30.602Z,39328
2017-04-20T07:36:31.229Z,37984
2017-04-20T07:37:31.849Z,39968
2017-04-20T07:38:32.479Z,41312
2017-04-20T07:39:33.096Z,43488
2017-04-20T07:40:33.721Z,43712
2017-04-20T07:41:34.346Z,42688
2017-04-20T07:42:34.959Z,44288
2017-04-20T07:43:35.576Z,46112
2017-04-20T07:44:36.208Z,46784
2017-04-20T07:45:36.827Z,47392
2017-04-20T07:46:37.456Z,46592
2017-04-20T07:47:38.081Z,45696
2017-04-20T07:48:38.708Z,44320
2017-04-20T07:49:39.333Z,43712
2017-04-20T07:50:39.957Z,41888
2017-04-20T07:51:40.585Z,48480
2017-04-20T07:52:41.405Z,52992
2017-04-20T07:53:42.037Z,52352
2017-04-20T07:54:42.663Z,49024
2017-04-20T07:55:43.388Z,47488
2017-04-20T07:56:44.004Z,46048
2017-04-20T07:57:44.639Z,46496
2017-04-20T07:58:45.253Z,46912
2017-04-20T07:59:45.881Z,50400
2017-04-20T08:00:46.559Z,52448
2017-04-20T08:01:47.181Z,51424
2017-04-20T08:02:48.012Z,49568
2017-04-20T08:03:48.638Z,40288
2017-04-20T08:04:49.257Z,43168
2017-04-20T08:05:49.869Z,52480
2017-04-20T08:06:50.487Z,54176
2017-04-20T08:07:51.116Z,56544
2017-04-20T08:08:51.745Z,56256
2017-04-20T08:09:52.355Z,56704
2017-04-20T08:10:53.034Z,60832
2017-04-20T08:11:53.659Z,62240
2017-04-20T08:12:54.282Z,59712
2017-04-20T08:13:54.909Z,61216
2017-04-20T08:14:55.535Z,57184
2017-04-20T08:15:56.161Z,57824
2017-04-20T08:16:56.792Z,59616
2017-04-20T08:17:57.422Z,55552
2017-04-20T08:18:58.044Z,61792
2017-04-20T08:19:58.671Z,58336
2017-04-20T08:20:59.354Z,60864
2017-04-20T08:21:59.978Z,61696
2017-04-20T08:23:00.607Z,61184
2017-04-20T08:24:01.234Z,62528
2017-04-20T08:25:01.858Z,66976
2017-04-20T08:26:02.483Z,69408
2017-04-20T08:27:03.110Z,71360
2017-04-20T08:28:03.744Z,70240
2017-04-20T08:29:04.414Z,70912
2017-04-20T08:30:04.988Z,68128
2017-04-20T08:31:05.656Z,66976
2017-04-20T08:32:06.286Z,68960
2017-04-20T08:33:06.915Z,74880
2017-04-20T08:34:07.531Z,77600
2017-04-20T08:35:08.150Z,77504
2017-04-20T08:36:08.777Z,74016
2017-04-20T08:37:09.394Z,66272
2017-04-20T08:38:10.009Z,68128
2017-04-20T08:39:10.624Z,67680
2017-04-20T08:40:11.250Z,65472
2017-04-20T08:41:11.912Z,67968
2017-04-20T08:42:12.528Z,71456
2017-04-20T08:43:13.158Z,71040
2017-04-20T08:44:13.778Z,69472
2017-04-20T08:45:14.410Z,69664
2017-04-20T08:46:15.090Z,69984
2017-04-20T08:47:15.699Z,72192
2017-04-20T08:48:16.335Z,74464
2017-04-20T08:49:16.961Z,77600
2017-04-20T08:50:17.591Z,76512
2017-04-20T08:51:18.307Z,77024
2017-04-20T08:52:18.926Z,78560
2017-04-20T08:53:19.554Z,73664
2017-04-20T08:54:20.177Z,74720
2017-04-20T08:55:20.792Z,75104
2017-04-20T08:56:21.458Z,77632
2017-04-20T08:57:22.082Z,77728
2017-04-20T08:58:22.706Z,75776
2017-04-20T08:59:23.333Z,76960
2017-04-20T09:00:23.959Z,81856
2017-04-20T09:01:24.594Z,83232
2017-04-20T09:02:25.222Z,76128
2017-04-20T09:03:25.852Z,75328
2017-04-20T09:04:26.475Z,68064
2017-04-20T09:05:27.307Z,55296
2017-04-20T09:06:27.925Z,63392
2017-04-20T09:07:28.551Z,63296
2017-04-20T09:08:29.169Z,75264
2017-04-20T09:09:29.780Z,80448
2017-04-20T09:10:30.409Z,75680
2017-04-20T09:11:31.082Z,55808
2017-04-20T09:12:31.711Z,47136
2017-04-20T09:13:32.321Z,65216
2017-04-20T09:14:32.941Z,84288
2017-04-20T09:15:33.569Z,54720
2017-04-20T09:16:34.245Z,40032
2017-04-20T09:17:34.875Z,54432
2017-04-20T09:18:35.495Z,72064
2017-04-20T09:19:36.123Z,76544
2017-04-20T09:20:36.754Z,76032
2017-04-20T09:21:37.429Z,75040
2017-04-20T09:22:38.044Z,71424
2017-04-20T09:23:38.676Z,66528
2017-04-20T09:24:39.298Z,63008
2017-04-20T09:25:39.911Z,65536
2017-04-20T09:26:40.585Z,70848
2017-04-20T09:27:41.199Z,72800
2017-04-20T09:28:41.828Z,75904
2017-04-20T09:29:42.453Z,68384
2017-04-20T09:30:43.082Z,66592
2017-04-20T09:31:43.753Z,71776
2017-04-20T09:32:44.374Z,75456
2017-04-20T09:33:44.998Z,75296
2017-04-20T09:34:45.625Z,79104
2017-04-20T09:35:46.251Z,80448
2017-04-20T09:36:46.924Z,78592
2017-04-20T09:37:47.557Z,78496
2017-04-20T09:38:48.178Z,76864
2017-04-20T09:39:48.809Z,78304
2017-04-20T09:40:49.439Z,81216
2017-04-20T09:41:50.102Z,81728
2017-04-20T09:42:50.746Z,79776
2017-04-20T09:43:51.368Z,77568
2017-04-20T09:44:51.982Z,78976
2017-04-20T09:45:52.596Z,75808
2017-04-20T09:46:53.270Z,76192
2017-04-20T09:47:53.903Z,74048
2017-04-20T09:48:54.527Z,75776
2017-04-20T09:49:55.142Z,75968
2017-04-20T09:50:55.757Z,79328
2017-04-20T09:51:56.382Z,79328
2017-04-20T09:52:57.013Z,79712
2017-04-20T09:53:57.640Z,82368
2017-04-20T09:54:58.265Z,80960
2017-04-20T09:55:58.894Z,85952
2017-04-20T09:56:59.574Z,86688
2017-04-20T09:58:00.198Z,87040
2017-04-20T09:59:00.814Z,82400
2017-04-20T10:00:01.432Z,81760
2017-04-20T10:01:02.063Z,84768
2017-04-20T10:02:02.877Z,88512
2017-04-20T10:03:03.505Z,92448
2017-04-20T10:04:04.109Z,91648
2017-04-20T10:05:04.729Z,89536
2017-04-20T10:06:05.354Z,86880
2017-04-20T10:07:05.977Z,84160
2017-04-20T10:08:06.599Z,89792
2017-04-20T10:09:07.223Z,90304
2017-04-20T10:10:07.904Z,94272
2017-04-20T10:11:08.540Z,96832
2017-04-20T10:12:09.171Z,99264
2017-04-20T10:13:09.798Z,95552
2017-04-20T10:14:10.419Z,89152
2017-04-20T10:15:11.045Z,96352
2017-04-20T10:16:11.675Z,97376
2017-04-20T10:17:12.284Z,98784
2017-04-20T10:18:12.902Z,97568
2017-04-20T10:19:13.530Z,98560
2017-04-20T10:20:14.203Z,95008
2017-04-20T10:21:14.829Z,96160
2017-04-20T10:22:15.463Z,98400
2017-04-20T10:23:16.073Z,104448
2017-04-20T10:24:16.691Z,104960
2017-04-20T10:25:17.317Z,100448
2017-04-20T10:26:17.972Z,104832
2017-04-20T10:27:18.562Z,101152
2017-04-20T10:28:19.185Z,95712
2017-04-20T10:29:19.812Z,96000
2017-04-20T10:30:20.430Z,91232
2017-04-20T10:31:21.057Z,98528
2017-04-20T10:32:21.679Z,103584
2017-04-20T10:33:22.296Z,109120
2017-04-20T10:34:22.920Z,107072
2017-04-20T10:35:23.604Z,101312
2017-04-20T10:36:24.222Z,101120
2017-04-20T10:37:24.851Z,102080
2017-04-20T10:38:25.478Z,102144
2017-04-20T10:39:26.107Z,99296
2017-04-20T10:40:26.730Z,93312
2017-04-20T10:41:27.357Z,99136
2017-04-20T10:42:27.972Z,100384
2017-04-20T10:43:28.599Z,102336
2017-04-20T10:44:29.217Z,107424
2017-04-20T10:45:29.897Z,107872
2017-04-20T10:46:30.524Z,107296
2017-04-20T10:47:31.141Z,104032
2017-04-20T10:48:31.972Z,102944
2017-04-20T10:49:32.596Z,101024
2017-04-20T10:50:33.213Z,106624
2017-04-20T10:51:33.835Z,103232
2017-04-20T10:52:34.456Z,98624
2017-04-20T10:53:35.084Z,105440
2017-04-20T10:54:35.711Z,101696
2017-04-20T10:55:36.378Z,100544
2017-04-20T10:56:36.991Z,96704
2017-04-20T10:57:37.612Z,98656
2017-04-20T10:58:38.238Z,100256
2017-04-20T10:59:38.862Z,101664
2017-04-20T11:00:39.527Z,103680
2017-04-20T11:01:40.145Z,103392
2017-04-20T11:02:40.765Z,107840
2017-04-20T11:03:41.593Z,107520
2017-04-20T11:04:42.222Z,105984
2017-04-20T11:05:42.847Z,104256
2017-04-20T11:06:43.473Z,106720
2017-04-20T11:07:44.101Z,96480
2017-04-20T11:08:44.721Z,106112
2017-04-20T11:09:45.336Z,104672
2017-04-20T11:10:45.950Z,106944
2017-04-20T11:11:46.581Z,113056
2017-04-20T11:12:47.206Z,108384
2017-04-20T11:13:47.831Z,110464
2017-04-20T11:14:48.448Z,108448
2017-04-20T11:15:49.127Z,108928
2017-04-20T11:16:49.743Z,106784
2017-04-20T11:17:50.362Z,104288
2017-04-20T11:18:50.987Z,100512
2017-04-20T11:19:51.600Z,98720
2017-04-20T11:20:52.278Z,98784
2017-04-20T11:21:52.915Z,100800
2017-04-20T11:22:53.535Z,99424
2017-04-20T11:23:54.144Z,103968
2017-04-20T11:24:54.759Z,103904
2017-04-20T11:25:55.391Z,98112
2017-04-20T11:26:56.017Z,98784
2017-04-20T11:27:56.634Z,102112
2017-04-20T11:28:57.244Z,102976
2017-04-20T11:29:57.859Z,99968
2017-04-20T11:30:58.473Z,99136
2017-04-20T11:31:59.100Z,100128
2017-04-20T11:32:59.725Z,98752
2017-04-20T11:34:00.336Z,97056
2017-04-20T11:35:00.959Z,96640
2017-04-20T11:36:01.709Z,96032
2017-04-20T11:37:02.331Z,97024
2017-04-20T11:38:02.968Z,92352
2017-04-20T11:39:03.593Z,90656
2017-04-20T11:40:04.211Z,93824
2017-04-20T11:41:04.840Z,95552
2017-04-20T11:42:05.468Z,96864
2017-04-20T11:43:06.085Z,96256
2017-04-20T11:44:06.696Z,98272
2017-04-20T11:45:07.311Z,96928
2017-04-20T11:46:07.985Z,96768
2017-04-20T11:47:08.599Z,92928
2017-04-20T11:48:09.224Z,90400
2017-04-20T11:49:09.852Z,92064
2017-04-20T11:50:10.474Z,94016
2017-04-20T11:51:11.093Z,93696
2017-04-20T11:52:11.707Z,95840
2017-04-20T11:53:12.323Z,99104
2017-04-20T11:54:12.951Z,102112
2017-04-20T11:55:13.577Z,95232
2017-04-20T11:56:14.189Z,90592
2017-04-20T11:57:14.800Z,82336
2017-04-20T11:58:15.429Z,85600
2017-04-20T11:59:16.054Z,87488
2017-04-20T12:00:16.675Z,84160
2017-04-20T12:01:17.290Z,90912
2017-04-20T12:02:17.912Z,91872
2017-04-20T12:03:18.538Z,78976
2017-04-20T12:04:19.155Z,79744
2017-04-20T12:05:19.780Z,84480
2017-04-20T12:06:20.406Z,89312
2017-04-20T12:07:21.038Z,95072
2017-04-20T12:08:21.664Z,95648
2017-04-20T12:09:22.278Z,95168
2017-04-20T12:10:22.908Z,89248
2017-04-20T12:11:23.528Z,86592
2017-04-20T12:12:24.156Z,89760
2017-04-20T12:13:24.775Z,87328
2017-04-20T12:14:25.400Z,98176
2017-04-20T12:15:26.067Z,97888
2017-04-20T12:16:26.695Z,93728
2017-04-20T12:17:27.320Z,87360
2017-04-20T12:18:27.935Z,83424
2017-04-20T12:19:28.750Z,83552
2017-04-20T12:20:29.381Z,85856
2017-04-20T12:21:30.003Z,84832
2017-04-20T12:22:30.625Z,87008
2017-04-20T12:23:31.246Z,94368
2017-04-20T12:24:31.914Z,95296
2017-04-20T12:25:32.543Z,92864
2017-04-20T12:26:33.169Z,90272
2017-04-20T12:27:33.794Z,88288
2017-04-20T12:28:34.408Z,91168
2017-04-20T12:29:35.023Z,90944
2017-04-20T12:30:35.649Z,89600
2017-04-20T12:31:36.278Z,85792
2017-04-20T12:32:36.888Z,84640
2017-04-20T12:33:37.515Z,87680
2017-04-20T12:34:38.189Z,91200
2017-04-20T12:35:38.816Z,93888
2017-04-20T12:36:39.440Z,98528
2017-04-20T12:37:40.065Z,100064
2017-04-20T12:38:40.678Z,98272
2017-04-20T12:39:41.341Z,99616
2017-04-20T12:40:41.970Z,102272
2017-04-20T12:41:42.597Z,106176
2017-04-20T12:42:43.214Z,107232
2017-04-20T12:43:43.840Z,110080
2017-04-20T12:44:44.519Z,109792
2017-04-20T12:45:45.152Z,105856
2017-04-20T12:46:45.775Z,102752
2017-04-20T12:47:46.401Z,99584
2017-04-20T12:48:47.020Z,97408
2017-04-20T12:49:47.643Z,96352
2017-04-20T12:50:48.272Z,94816
2017-04-20T12:51:48.887Z,92256
2017-04-20T12:52:49.504Z,89696
2017-04-20T12:53:50.130Z,87520
2017-04-20T12:54:50.800Z,86400
2017-04-20T12:55:51.413Z,84608
2017-04-20T12:56:52.030Z,82624
2017-04-20T12:57:52.654Z,81760
2017-04-20T12:58:53.281Z,81696
2017-04-20T12:59:53.913Z,83328
2017-04-20T13:00:54.537Z,81792
2017-04-20T13:01:55.161Z,80416
2017-04-20T13:02:55.784Z,79520
2017-04-20T13:03:56.406Z,79104
2017-04-20T13:04:57.034Z,80704
2017-04-20T13:05:57.859Z,81408
2017-04-20T13:06:58.474Z,80992
2017-04-20T13:07:59.100Z,84896
2017-04-20T13:08:59.733Z,85088
2017-04-20T13:10:00.355Z,86432
2017-04-20T13:11:00.977Z,87264
2017-04-20T13:12:01.593Z,86368
2017-04-20T13:13:02.207Z,82240
2017-04-20T13:14:02.819Z,79968
2017-04-20T13:15:03.445Z,78528
2017-04-20T13:16:04.077Z,79200
2017-04-20T13:17:04.703Z,80640
2017-04-20T13:18:05.325Z,81536
2017-04-20T13:19:05.940Z,82880
2017-04-20T13:20:06.621Z,82976
2017-04-20T13:21:07.251Z,79456
2017-04-20T13:22:07.880Z,76384
2017-04-20T13:23:08.507Z,73824
2017-04-20T13:24:09.122Z,76064
2017-04-20T13:25:09.733Z,75136
2017-04-20T13:26:10.360Z,78400
2017-04-20T13:27:10.972Z,80640
2017-04-20T13:28:11.597Z,82720
2017-04-20T13:29:12.224Z,86368
2017-04-20T13:30:12.889Z,86976
2017-04-20T13:31:13.515Z,87264
2017-04-20T13:32:14.143Z,88608
2017-04-20T13:33:14.757Z,85984
2017-04-20T13:34:15.386Z,79136
2017-04-20T13:35:16.053Z,88704